Blue Phoenix — 3ENL7 — position and weather

sailwx.info

Track history (hours):
 
Tides and Currents Weather Stations Pressure Air Temp Water Temp Dewpoint Dewpoint Depression Visibility Wind Speed Wind Dir Waves Ship Positions

Blue Phoenix

Last reported at 2017-Nov-05 08:49 UTC. Time now 2017-Nov-19 19:53 UTC.
Position N 30°48' E 122°19'.
Warning: this ship's position is 14 days out of date.

Length 96 m; draft 5.1 m.

Type: Ship. MMSI: 353874000.

Date/timePositionNaut miles runAvg speedWind from/ knotsBaromVisibWave heightAir tempDewpointWater temp
2017-Nov-05 08:49N 30°48' E 122°19'412.2
2017-Nov-05 08:30N 30°45' E 122°17'  
2017-Oct-30 11:16N 31°00' E 122°25'512.7
2017-Oct-30 10:50N 31°01' E 122°19'412.6
2017-Oct-30 10:30N 31°02' E 122°15'4 8.6
2017-Oct-30 10:00N 31°03' E 122°10'611.7
2017-Oct-30 09:29N 31°04' E 122°03'510.0
2017-Oct-30 09:00N 31°06' E 121°58'611.4
2017-Oct-30 08:30N 31°09' E 121°52'713.5
2017-Oct-30 08:00N 31°14' E 121°47'713.5
2017-Oct-30 07:30N 31°19' E 121°42'510.5
2017-Oct-30 07:00N 31°22' E 121°36'611.5
2017-Oct-30 06:30N 31°25' E 121°31'4 7.7
2017-Oct-30 06:00N 31°28' E 121°27'611.6
2017-Oct-30 05:30N 31°31' E 121°22'612.8
2017-Oct-30 05:00N 31°36' E 121°17'714.6
2017-Oct-30 04:31N 31°41' E 121°10'914.1
2017-Oct-30 03:53N 31°46' E 121°02'  
2017-Oct-27 23:16N 31°43' E 121°08'310.6
2017-Oct-27 23:00N 31°41' E 121°11'510.5
2017-Oct-27 22:30N 31°38' E 121°15'510.1
2017-Oct-27 22:00N 31°35' E 121°20'0 0.4
2017-Oct-27 21:23N 31°34' E 121°20'0 0.0
2017-Oct-27 20:50N 31°34' E 121°20'0 0.1
2017-Oct-27 20:29N 31°34' E 121°20'0 0.0
2017-Oct-27 19:59N 31°34' E 121°20'0 0.0
2017-Oct-27 19:29N 31°34' E 121°20'0 0.0
2017-Oct-27 18:59N 31°34' E 121°20'0 0.0
2017-Oct-27 18:26N 31°34' E 121°20'0 0.0
2017-Oct-27 17:59N 31°34' E 121°20'0 0.0
2017-Oct-27 17:29N 31°34' E 121°20'0 0.0
2017-Oct-27 16:59N 31°34' E 121°20'0 0.0
2017-Oct-27 16:26N 31°34' E 121°20'0 0.0
2017-Oct-27 15:50N 31°34' E 121°20'0 0.0
2017-Oct-27 15:20N 31°34' E 121°20'0 0.0
2017-Oct-27 14:59N 31°34' E 121°20'0 0.0
2017-Oct-27 14:29N 31°34' E 121°20'0 0.0
2017-Oct-27 13:59N 31°34' E 121°20'0 0.0
2017-Oct-27 13:29N 31°34' E 121°20'0 0.0
2017-Oct-27 12:59N 31°34' E 121°20'0 0.0
2017-Oct-27 12:29N 31°34' E 121°20'0 0.0
2017-Oct-27 11:59N 31°34' E 121°20'0 0.1
2017-Oct-27 11:26N 31°34' E 121°20'0 0.1
2017-Oct-27 10:59N 31°34' E 121°20'1 1.7
2017-Oct-27 10:30N 31°34' E 121°20'4 8.1
2017-Oct-27 10:00N 31°31' E 121°24'5 9.4
2017-Oct-27 09:30N 31°28' E 121°28'4 8.1
2017-Oct-27 09:00N 31°25' E 121°31'4 7.4
2017-Oct-27 08:30N 31°23' E 121°35'5 9.6
2017-Oct-27 08:00N 31°21' E 121°40'4 8.9
2017-Oct-27 07:30N 31°18' E 121°44'1112.2
2017-Oct-27 06:39N 31°10' E 121°52'213.0
2017-Oct-27 06:29N 31°09' E 121°54'612.2
2017-Oct-27 06:00N 31°06' E 121°60'510.0
2017-Oct-27 05:30N 31°04' E 122°05'611.6
2017-Oct-27 04:59N 31°03' E 122°12'9 9.1
2017-Oct-27 04:01N 31°02' E 122°22'0 9.3
2017-Oct-27 04:00N 31°02' E 122°23'  
Track history (hours):
 
Tides and Currents Weather Stations Pressure Air Temp Water Temp Dewpoint Dewpoint Depression Visibility Wind Speed Wind Dir Waves Ship Positions

Blue Phoenix

Last reported at 2017-Nov-05 08:49 UTC. Time now 2017-Nov-19 19:53 UTC.
Position N 30°48' E 122°19'.
Warning: this ship's position is 14 days out of date.

Length 96 m; draft 5.1 m.

Type: Ship. MMSI: 353874000.

Date/timePositionNaut miles runAvg speedWind from/ knotsBaromVisibWave heightAir tempDewpointWater temp
2017-Nov-05 08:49N 30°48' E 122°19'412.2
2017-Nov-05 08:30N 30°45' E 122°17'  
2017-Oct-30 11:16N 31°00' E 122°25'512.7
2017-Oct-30 10:50N 31°01' E 122°19'412.6
2017-Oct-30 10:30N 31°02' E 122°15'4 8.6
2017-Oct-30 10:00N 31°03' E 122°10'611.7
2017-Oct-30 09:29N 31°04' E 122°03'510.0
2017-Oct-30 09:00N 31°06' E 121°58'611.4
2017-Oct-30 08:30N 31°09' E 121°52'713.5
2017-Oct-30 08:00N 31°14' E 121°47'713.5
2017-Oct-30 07:30N 31°19' E 121°42'510.5
2017-Oct-30 07:00N 31°22' E 121°36'611.5
2017-Oct-30 06:30N 31°25' E 121°31'4 7.7
2017-Oct-30 06:00N 31°28' E 121°27'611.6
2017-Oct-30 05:30N 31°31' E 121°22'612.8
2017-Oct-30 05:00N 31°36' E 121°17'714.6
2017-Oct-30 04:31N 31°41' E 121°10'914.1
2017-Oct-30 03:53N 31°46' E 121°02'  
2017-Oct-27 23:16N 31°43' E 121°08'310.6
2017-Oct-27 23:00N 31°41' E 121°11'510.5
2017-Oct-27 22:30N 31°38' E 121°15'510.1
2017-Oct-27 22:00N 31°35' E 121°20'0 0.4
2017-Oct-27 21:23N 31°34' E 121°20'0 0.0
2017-Oct-27 20:50N 31°34' E 121°20'0 0.1
2017-Oct-27 20:29N 31°34' E 121°20'0 0.0
2017-Oct-27 19:59N 31°34' E 121°20'0 0.0
2017-Oct-27 19:29N 31°34' E 121°20'0 0.0
2017-Oct-27 18:59N 31°34' E 121°20'0 0.0
2017-Oct-27 18:26N 31°34' E 121°20'0 0.0
2017-Oct-27 17:59N 31°34' E 121°20'0 0.0
2017-Oct-27 17:29N 31°34' E 121°20'0 0.0
2017-Oct-27 16:59N 31°34' E 121°20'0 0.0
2017-Oct-27 16:26N 31°34' E 121°20'0 0.0
2017-Oct-27 15:50N 31°34' E 121°20'0 0.0
2017-Oct-27 15:20N 31°34' E 121°20'0 0.0
2017-Oct-27 14:59N 31°34' E 121°20'0 0.0
2017-Oct-27 14:29N 31°34' E 121°20'0 0.0
2017-Oct-27 13:59N 31°34' E 121°20'0 0.0
2017-Oct-27 13:29N 31°34' E 121°20'0 0.0
2017-Oct-27 12:59N 31°34' E 121°20'0 0.0
2017-Oct-27 12:29N 31°34' E 121°20'0 0.0
2017-Oct-27 11:59N 31°34' E 121°20'0 0.1
2017-Oct-27 11:26N 31°34' E 121°20'0 0.1
2017-Oct-27 10:59N 31°34' E 121°20'1 1.7
2017-Oct-27 10:30N 31°34' E 121°20'4 8.1
2017-Oct-27 10:00N 31°31' E 121°24'5 9.4
2017-Oct-27 09:30N 31°28' E 121°28'4 8.1
2017-Oct-27 09:00N 31°25' E 121°31'4 7.4
2017-Oct-27 08:30N 31°23' E 121°35'5 9.6
2017-Oct-27 08:00N 31°21' E 121°40'4 8.9
2017-Oct-27 07:30N 31°18' E 121°44'1112.2
2017-Oct-27 06:39N 31°10' E 121°52'213.0
2017-Oct-27 06:29N 31°09' E 121°54'612.2
2017-Oct-27 06:00N 31°06' E 121°60'510.0
2017-Oct-27 05:30N 31°04' E 122°05'611.6
2017-Oct-27 04:59N 31°03' E 122°12'9 9.1
2017-Oct-27 04:01N 31°02' E 122°22'0 9.3
2017-Oct-27 04:00N 31°02' E 122°23'  

Dump ship's entire track history